sensor_id;sensor_type;location;lat;lon;timestamp;pressure;altitude;pressure_sealevel;temperature;humidity
59831;BME280;45711;50.108;13.712;2023-02-15T00:00:14;99444.19;;;1.34;99.86
59831;BME280;45711;50.108;13.712;2023-02-15T00:02:40;99437.91;;;1.50;100.00
59831;BME280;45711;50.108;13.712;2023-02-15T00:05:06;99431.47;;;1.23;99.92
59831;BME280;45711;50.108;13.712;2023-02-15T00:07:32;99438.19;;;1.55;100.00
59831;BME280;45711;50.108;13.712;2023-02-15T00:09:58;99427.25;;;1.43;98.06
59831;BME280;45711;50.108;13.712;2023-02-15T00:12:23;99428.28;;;0.75;100.00
59831;BME280;45711;50.108;13.712;2023-02-15T00:14:50;99426.22;;;1.00;100.00
59831;BME280;45711;50.108;13.712;2023-02-15T00:17:16;99433.81;;;1.33;100.00
59831;BME280;45711;50.108;13.712;2023-02-15T00:19:41;99424.72;;;1.20;100.00
59831;BME280;45711;50.108;13.712;2023-02-15T00:22:07;99422.91;;;1.50;99.18
59831;BME280;45711;50.108;13.712;2023-02-15T00:24:33;99421.09;;;1.66;99.36
59831;BME280;45711;50.108;13.712;2023-02-15T00:26:58;99426.44;;;1.43;99.65
59831;BME280;45711;50.108;13.712;2023-02-15T00:29:24;99413.81;;;1.53;98.40
59831;BME280;45711;50.108;13.712;2023-02-15T00:31:51;99418.28;;;1.53;97.35
59831;BME280;45711;50.108;13.712;2023-02-15T00:34:19;99422.00;;;1.43;98.67
59831;BME280;45711;50.108;13.712;2023-02-15T00:36:45;99413.13;;;0.77;100.00
59831;BME280;45711;50.108;13.712;2023-02-15T00:39:11;99416.63;;;1.07;100.00
59831;BME280;45711;50.108;13.712;2023-02-15T00:41:37;99423.16;;;1.11;100.00
59831;BME280;45711;50.108;13.712;2023-02-15T00:44:03;99425.38;;;1.37;99.14
59831;BME280;45711;50.108;13.712;2023-02-15T00:46:29;99417.09;;;1.40;99.17
59831;BME280;45711;50.108;13.712;2023-02-15T00:48:56;99414.16;;;1.65;97.10
59831;BME280;45711;50.108;13.712;2023-02-15T00:51:22;99410.63;;;1.43;97.97
59831;BME280;45711;50.108;13.712;2023-02-15T00:53:50;99402.88;;;0.97;98.02
59831;BME280;45711;50.108;13.712;2023-02-15T00:56:15;99403.84;;;0.81;100.00
59831;BME280;45711;50.108;13.712;2023-02-15T00:58:41;99399.97;;;0.92;99.04
59831;BME280;45711;50.108;13.712;2023-02-15T01:01:08;99401.19;;;0.43;100.00
59831;BME280;45711;50.108;13.712;2023-02-15T01:03:35;99402.03;;;0.44;100.00
59831;BME280;45711;50.108;13.712;2023-02-15T01:06:03;99397.94;;;0.41;100.00
59831;BME280;45711;50.108;13.712;2023-02-15T01:08:29;99393.91;;;0.54;100.00
59831;BME280;45711;50.108;13.712;2023-02-15T01:10:54;99379.53;;;0.56;100.00
59831;BME280;45711;50.108;13.712;2023-02-15T01:13:20;99381.13;;;0.65;100.00
59831;BME280;45711;50.108;13.712;2023-02-15T01:15:52;99380.78;;;0.45;100.00
59831;BME280;45711;50.108;13.712;2023-02-15T01:18:18;99378.81;;;0.24;100.00
59831;BME280;45711;50.108;13.712;2023-02-15T01:20:43;99371.94;;;0.38;100.00
59831;BME280;45711;50.108;13.712;2023-02-15T01:23:12;99387.16;;;1.04;100.00
59831;BME280;45711;50.108;13.712;2023-02-15T01:25:37;99379.06;;;1.20;98.44
59831;BME280;45711;50.108;13.712;2023-02-15T01:28:03;99373.84;;;0.82;97.59
59831;BME280;45711;50.108;13.712;2023-02-15T01:30:29;99377.34;;;1.12;98.32
59831;BME280;45711;50.108;13.712;2023-02-15T01:32:56;99369.31;;;0.91;98.77
59831;BME280;45711;50.108;13.712;2023-02-15T01:35:22;99374.91;;;0.58;98.84
59831;BME280;45711;50.108;13.712;2023-02-15T01:37:48;99365.38;;;0.57;99.00
59831;BME280;45711;50.108;13.712;2023-02-15T01:40:17;99376.28;;;0.54;100.00
59831;BME280;45711;50.108;13.712;2023-02-15T01:42:43;99375.19;;;0.63;99.44
59831;BME280;45711;50.108;13.712;2023-02-15T01:45:19;99369.09;;;0.48;100.00
59831;BME280;45711;50.108;13.712;2023-02-15T01:47:50;99362.66;;;0.28;100.00
59831;BME280;45711;50.108;13.712;2023-02-15T01:50:21;99356.75;;;0.25;99.80
59831;BME280;45711;50.108;13.712;2023-02-15T01:52:51;99358.22;;;0.05;100.00
59831;BME280;45711;50.108;13.712;2023-02-15T01:55:19;99353.53;;;0.15;100.00
59831;BME280;45711;50.108;13.712;2023-02-15T01:57:46;99349.84;;;-0.21;100.00
59831;BME280;45711;50.108;13.712;2023-02-15T02:00:13;99346.19;;;0.48;100.00
59831;BME280;45711;50.108;13.712;2023-02-15T02:02:39;99355.41;;;0.07;100.00
59831;BME280;45711;50.108;13.712;2023-02-15T02:05:06;99340.81;;;-0.27;100.00
59831;BME280;45711;50.108;13.712;2023-02-15T02:07:34;99350.47;;;0.64;100.00
59831;BME280;45711;50.108;13.712;2023-02-15T02:10:05;99354.03;;;0.57;100.00
59831;BME280;45711;50.108;13.712;2023-02-15T02:12:33;99349.22;;;0.22;100.00
59831;BME280;45711;50.108;13.712;2023-02-15T02:15:00;99352.72;;;-0.08;100.00
59831;BME280;45711;50.108;13.712;2023-02-15T02:17:34;99349.81;;;0.10;100.00
59831;BME280;45711;50.108;13.712;2023-02-15T02:20:16;99346.13;;;-0.04;100.00
59831;BME280;45711;50.108;13.712;2023-02-15T02:23:08;99347.16;;;0.33;100.00
59831;BME280;45711;50.108;13.712;2023-02-15T02:29:14;99346.75;;;-0.25;100.00
59831;BME280;45711;50.108;13.712;2023-02-15T02:32:16;99338.03;;;-0.26;100.00
59831;BME280;45711;50.108;13.712;2023-02-15T02:34:51;99330.72;;;-0.15;100.00
59831;BME280;45711;50.108;13.712;2023-02-15T02:37:24;99334.44;;;-0.33;100.00
59831;BME280;45711;50.108;13.712;2023-02-15T02:39:56;99326.63;;;-0.18;100.00
59831;BME280;45711;50.108;13.712;2023-02-15T02:42:29;99328.63;;;-0.20;100.00
59831;BME280;45711;50.108;13.712;2023-02-15T02:45:02;99325.94;;;-0.12;100.00
59831;BME280;45711;50.108;13.712;2023-02-15T02:47:30;99320.03;;;0.09;100.00
59831;BME280;45711;50.108;13.712;2023-02-15T02:50:01;99316.09;;;-0.18;100.00
59831;BME280;45711;50.108;13.712;2023-02-15T02:52:37;99315.91;;;0.30;100.00
59831;BME280;45711;50.108;13.712;2023-02-15T02:55:06;99312.16;;;-0.45;100.00
59831;BME280;45711;50.108;13.712;2023-02-15T02:57:33;99304.41;;;0.08;100.00
59831;BME280;45711;50.108;13.712;2023-02-15T03:00:02;99307.94;;;0.00;100.00
59831;BME280;45711;50.108;13.712;2023-02-15T03:02:31;99313.63;;;0.27;100.00
59831;BME280;45711;50.108;13.712;2023-02-15T03:05:02;99302.03;;;0.13;99.50
59831;BME280;45711;50.108;13.712;2023-02-15T03:07:29;99300.44;;;-0.11;100.00
59831;BME280;45711;50.108;13.712;2023-02-15T03:09:57;99295.94;;;-0.57;100.00
59831;BME280;45711;50.108;13.712;2023-02-15T03:12:26;99303.09;;;-0.65;100.00
59831;BME280;45711;50.108;13.712;2023-02-15T03:14:56;99298.13;;;-0.99;100.00
59831;BME280;45711;50.108;13.712;2023-02-15T03:17:27;99295.03;;;-0.72;100.00
59831;BME280;45711;50.108;13.712;2023-02-15T03:19:57;99302.38;;;-0.90;100.00
59831;BME280;45711;50.108;13.712;2023-02-15T03:22:29;99295.22;;;-0.73;100.00
59831;BME280;45711;50.108;13.712;2023-02-15T03:25:00;99289.78;;;-0.72;100.00
59831;BME280;45711;50.108;13.712;2023-02-15T03:27:31;99303.25;;;-0.44;100.00
59831;BME280;45711;50.108;13.712;2023-02-15T03:29:59;99302.13;;;0.05;100.00
59831;BME280;45711;50.108;13.712;2023-02-15T03:32:28;99295.22;;;-0.42;100.00
59831;BME280;45711;50.108;13.712;2023-02-15T03:34:55;99300.66;;;0.02;100.00
59831;BME280;45711;50.108;13.712;2023-02-15T03:37:28;99302.41;;;-0.36;100.00
59831;BME280;45711;50.108;13.712;2023-02-15T03:39:57;99295.03;;;-0.72;100.00
59831;BME280;45711;50.108;13.712;2023-02-15T03:42:44;99294.81;;;-0.93;100.00
59831;BME280;45711;50.108;13.712;2023-02-15T03:45:13;99291.09;;;-0.68;100.00
59831;BME280;45711;50.108;13.712;2023-02-15T03:47:44;99303.75;;;-0.71;100.00
59831;BME280;45711;50.108;13.712;2023-02-15T03:50:15;99305.09;;;-0.76;100.00
59831;BME280;45711;50.108;13.712;2023-02-15T03:53:05;99303.75;;;-0.71;100.00
59831;BME280;45711;50.108;13.712;2023-02-15T03:55:31;99303.31;;;-0.83;100.00
59831;BME280;45711;50.108;13.712;2023-02-15T03:57:58;99299.81;;;-0.76;100.00
59831;BME280;45711;50.108;13.712;2023-02-15T04:00:47;99305.22;;;-0.15;100.00
59831;BME280;45711;50.108;13.712;2023-02-15T04:03:38;99297.63;;;-0.64;100.00
59831;BME280;45711;50.108;13.712;2023-02-15T04:06:04;99293.22;;;-0.71;100.00
59831;BME280;45711;50.108;13.712;2023-02-15T04:08:31;99301.59;;;-0.37;100.00
59831;BME280;45711;50.108;13.712;2023-02-15T04:11:16;99289.34;;;-0.53;100.00
59831;BME280;45711;50.108;13.712;2023-02-15T04:13:41;99299.94;;;-0.61;100.00
59831;BME280;45711;50.108;13.712;2023-02-15T04:16:07;99297.63;;;-0.33;100.00
59831;BME280;45711;50.108;13.712;2023-02-15T04:18:34;99288.94;;;-0.64;100.00
59831;BME280;45711;50.108;13.712;2023-02-15T04:21:20;99291.69;;;-0.58;100.00
59831;BME280;45711;50.108;13.712;2023-02-15T04:24:06;99280.84;;;-0.94;100.00
59831;BME280;45711;50.108;13.712;2023-02-15T04:26:50;99285.09;;;-0.85;100.00
59831;BME280;45711;50.108;13.712;2023-02-15T04:29:19;99269.78;;;-0.81;100.00
59831;BME280;45711;50.108;13.712;2023-02-15T04:31:45;99277.34;;;-0.78;100.00
59831;BME280;45711;50.108;13.712;2023-02-15T04:34:11;99281.34;;;-0.59;100.00
59831;BME280;45711;50.108;13.712;2023-02-15T04:36:37;99278.94;;;-0.69;100.00
59831;BME280;45711;50.108;13.712;2023-02-15T04:39:02;99276.78;;;-0.65;100.00
59831;BME280;45711;50.108;13.712;2023-02-15T04:41:29;99274.59;;;-0.93;100.00
59831;BME280;45711;50.108;13.712;2023-02-15T04:43:55;99277.88;;;-0.83;100.00
59831;BME280;45711;50.108;13.712;2023-02-15T04:46:21;99278.78;;;-0.44;100.00
59831;BME280;45711;50.108;13.712;2023-02-15T04:48:47;99281.66;;;-0.31;100.00
59831;BME280;45711;50.108;13.712;2023-02-15T04:51:12;99283.69;;;-0.41;100.00
59831;BME280;45711;50.108;13.712;2023-02-15T04:53:38;99278.97;;;-0.77;100.00
59831;BME280;45711;50.108;13.712;2023-02-15T04:56:04;99279.97;;;-0.78;100.00
59831;BME280;45711;50.108;13.712;2023-02-15T04:58:31;99288.72;;;-0.86;100.00
59831;BME280;45711;50.108;13.712;2023-02-15T05:00:56;99291.00;;;-0.52;100.00
59831;BME280;45711;50.108;13.712;2023-02-15T05:03:22;99293.78;;;-1.23;100.00
59831;BME280;45711;50.108;13.712;2023-02-15T05:05:47;99291.47;;;-1.27;100.00
59831;BME280;45711;50.108;13.712;2023-02-15T05:08:13;99294.38;;;-1.13;100.00
59831;BME280;45711;50.108;13.712;2023-02-15T05:10:39;99281.88;;;-1.03;100.00
59831;BME280;45711;50.108;13.712;2023-02-15T05:13:04;99280.56;;;-0.99;100.00
59831;BME280;45711;50.108;13.712;2023-02-15T05:15:31;99271.59;;;-1.13;100.00
59831;BME280;45711;50.108;13.712;2023-02-15T05:17:57;99267.38;;;-1.30;100.00
59831;BME280;45711;50.108;13.712;2023-02-15T05:20:22;99265.69;;;-1.23;100.00
59831;BME280;45711;50.108;13.712;2023-02-15T05:22:48;99266.09;;;-0.95;100.00
59831;BME280;45711;50.108;13.712;2023-02-15T05:25:14;99267.66;;;-1.17;100.00
59831;BME280;45711;50.108;13.712;2023-02-15T05:27:58;99270.72;;;-1.05;100.00
59831;BME280;45711;50.108;13.712;2023-02-15T05:30:43;99275.19;;;-1.22;100.00
59831;BME280;45711;50.108;13.712;2023-02-15T05:33:08;99269.75;;;-0.73;100.00
59831;BME280;45711;50.108;13.712;2023-02-15T05:35:34;99271.84;;;-1.39;100.00
59831;BME280;45711;50.108;13.712;2023-02-15T05:38:00;99283.50;;;-1.58;100.00
59831;BME280;45711;50.108;13.712;2023-02-15T05:40:25;99280.94;;;-0.79;100.00
59831;BME280;45711;50.108;13.712;2023-02-15T05:42:51;99281.19;;;-1.44;100.00
59831;BME280;45711;50.108;13.712;2023-02-15T05:45:17;99285.78;;;-1.38;100.00
59831;BME280;45711;50.108;13.712;2023-02-15T05:47:44;99290.56;;;-0.63;100.00
59831;BME280;45711;50.108;13.712;2023-02-15T05:50:10;99283.16;;;-1.38;100.00
59831;BME280;45711;50.108;13.712;2023-02-15T05:52:36;99283.81;;;-1.53;100.00
59831;BME280;45711;50.108;13.712;2023-02-15T05:55:02;99283.50;;;-1.49;100.00
59831;BME280;45711;50.108;13.712;2023-02-15T05:57:29;99279.56;;;-0.67;100.00
59831;BME280;45711;50.108;13.712;2023-02-15T05:59:55;99283.53;;;-1.10;100.00
59831;BME280;45711;50.108;13.712;2023-02-15T06:02:20;99280.69;;;-0.92;100.00
59831;BME280;45711;50.108;13.712;2023-02-15T06:04:47;99285.25;;;-1.25;100.00
59831;BME280;45711;50.108;13.712;2023-02-15T06:07:13;99281.44;;;-0.53;100.00
59831;BME280;45711;50.108;13.712;2023-02-15T06:09:38;99280.69;;;-0.61;100.00
59831;BME280;45711;50.108;13.712;2023-02-15T06:12:04;99286.41;;;-0.58;99.97
59831;BME280;45711;50.108;13.712;2023-02-15T06:14:30;99285.38;;;-0.80;100.00
59831;BME280;45711;50.108;13.712;2023-02-15T06:16:56;99283.66;;;-1.51;100.00
59831;BME280;45711;50.108;13.712;2023-02-15T06:19:21;99298.44;;;-1.58;100.00
59831;BME280;45711;50.108;13.712;2023-02-15T06:21:49;99301.22;;;-1.52;100.00
59831;BME280;45711;50.108;13.712;2023-02-15T06:24:15;99296.78;;;-1.35;100.00
59831;BME280;45711;50.108;13.712;2023-02-15T06:26:40;99312.03;;;-1.38;100.00
59831;BME280;45711;50.108;13.712;2023-02-15T06:29:06;99297.97;;;-1.06;100.00
59831;BME280;45711;50.108;13.712;2023-02-15T06:31:32;99304.16;;;-1.30;100.00
59831;BME280;45711;50.108;13.712;2023-02-15T06:33:58;99300.16;;;-1.18;100.00
59831;BME280;45711;50.108;13.712;2023-02-15T06:36:26;99304.88;;;-1.13;100.00
59831;BME280;45711;50.108;13.712;2023-02-15T06:38:54;99305.56;;;-1.11;100.00
59831;BME280;45711;50.108;13.712;2023-02-15T06:41:20;99301.13;;;-1.19;100.00
59831;BME280;45711;50.108;13.712;2023-02-15T06:43:45;99309.69;;;-1.17;100.00
59831;BME280;45711;50.108;13.712;2023-02-15T06:46:11;99305.38;;;-1.10;100.00
59831;BME280;45711;50.108;13.712;2023-02-15T06:48:36;99309.22;;;-1.29;100.00
59831;BME280;45711;50.108;13.712;2023-02-15T06:51:02;99303.31;;;-1.31;100.00
59831;BME280;45711;50.108;13.712;2023-02-15T06:53:28;99305.56;;;-1.19;100.00
59831;BME280;45711;50.108;13.712;2023-02-15T06:56:01;99305.94;;;-1.31;100.00
59831;BME280;45711;50.108;13.712;2023-02-15T06:58:28;99303.63;;;-1.25;100.00
59831;BME280;45711;50.108;13.712;2023-02-15T07:00:53;99307.91;;;-1.24;100.00
59831;BME280;45711;50.108;13.712;2023-02-15T07:03:19;99309.81;;;-1.10;100.00
59831;BME280;45711;50.108;13.712;2023-02-15T07:05:45;99309.72;;;-0.78;100.00
59831;BME280;45711;50.108;13.712;2023-02-15T07:08:12;99311.13;;;-1.14;100.00
59831;BME280;45711;50.108;13.712;2023-02-15T07:10:38;99308.28;;;-0.96;100.00
59831;BME280;45711;50.108;13.712;2023-02-15T07:13:05;99322.00;;;-1.17;100.00
59831;BME280;45711;50.108;13.712;2023-02-15T07:15:30;99317.09;;;-1.29;100.00
59831;BME280;45711;50.108;13.712;2023-02-15T07:17:56;99304.59;;;-1.18;100.00
59831;BME280;45711;50.108;13.712;2023-02-15T07:20:23;99296.94;;;-0.89;100.00
59831;BME280;45711;50.108;13.712;2023-02-15T07:22:49;99298.78;;;-1.06;100.00
59831;BME280;45711;50.108;13.712;2023-02-15T07:25:15;99292.13;;;-1.16;100.00
59831;BME280;45711;50.108;13.712;2023-02-15T07:27:41;99289.09;;;-1.05;100.00
59831;BME280;45711;50.108;13.712;2023-02-15T07:30:10;99278.44;;;-1.04;100.00
59831;BME280;45711;50.108;13.712;2023-02-15T07:32:37;99278.28;;;-1.10;100.00
59831;BME280;45711;50.108;13.712;2023-02-15T07:35:22;99276.94;;;-1.54;100.00
59831;BME280;45711;50.108;13.712;2023-02-15T07:37:48;99281.53;;;-1.56;100.00
59831;BME280;45711;50.108;13.712;2023-02-15T07:40:13;99278.50;;;-1.28;100.00
59831;BME280;45711;50.108;13.712;2023-02-15T07:42:39;99274.25;;;-1.29;100.00
59831;BME280;45711;50.108;13.712;2023-02-15T07:45:05;99278.69;;;-1.21;100.00
59831;BME280;45711;50.108;13.712;2023-02-15T07:47:32;99267.28;;;-1.14;100.00
59831;BME280;45711;50.108;13.712;2023-02-15T07:49:57;99279.50;;;-1.29;100.00
59831;BME280;45711;50.108;13.712;2023-02-15T07:52:23;99278.22;;;-1.41;100.00
59831;BME280;45711;50.108;13.712;2023-02-15T07:54:48;99274.75;;;-1.25;100.00
59831;BME280;45711;50.108;13.712;2023-02-15T07:57:14;99271.59;;;-1.21;100.00
59831;BME280;45711;50.108;13.712;2023-02-15T07:59:39;99278.56;;;-0.97;100.00
59831;BME280;45711;50.108;13.712;2023-02-15T08:02:05;99273.16;;;-0.95;100.00
59831;BME280;45711;50.108;13.712;2023-02-15T08:04:34;99270.69;;;-0.97;100.00
59831;BME280;45711;50.108;13.712;2023-02-15T08:07:00;99276.25;;;-0.92;100.00
59831;BME280;45711;50.108;13.712;2023-02-15T08:09:26;99275.66;;;-0.48;100.00
59831;BME280;45711;50.108;13.712;2023-02-15T08:11:51;99278.75;;;-0.67;100.00
59831;BME280;45711;50.108;13.712;2023-02-15T08:14:18;99272.44;;;-1.20;100.00
59831;BME280;45711;50.108;13.712;2023-02-15T08:16:47;99275.56;;;-1.25;100.00
59831;BME280;45711;50.108;13.712;2023-02-15T08:19:14;99276.41;;;-1.33;100.00
59831;BME280;45711;50.108;13.712;2023-02-15T08:21:43;99274.28;;;-1.45;100.00
59831;BME280;45711;50.108;13.712;2023-02-15T08:24:10;99269.50;;;-1.25;100.00
59831;BME280;45711;50.108;13.712;2023-02-15T08:26:37;99271.03;;;-1.00;100.00
59831;BME280;45711;50.108;13.712;2023-02-15T08:29:07;99279.38;;;-0.96;100.00
59831;BME280;45711;50.108;13.712;2023-02-15T08:31:33;99269.63;;;-0.80;100.00
59831;BME280;45711;50.108;13.712;2023-02-15T08:33:59;99267.97;;;-0.81;100.00
59831;BME280;45711;50.108;13.712;2023-02-15T08:36:26;99273.25;;;-1.20;100.00
59831;BME280;45711;50.108;13.712;2023-02-15T08:38:54;99271.22;;;-1.10;100.00
59831;BME280;45711;50.108;13.712;2023-02-15T08:41:23;99274.66;;;-1.09;100.00
59831;BME280;45711;50.108;13.712;2023-02-15T08:43:51;99276.41;;;-0.93;100.00
59831;BME280;45711;50.108;13.712;2023-02-15T08:46:18;99273.81;;;-1.02;100.00
59831;BME280;45711;50.108;13.712;2023-02-15T08:48:44;99277.16;;;-1.08;100.00
59831;BME280;45711;50.108;13.712;2023-02-15T08:51:11;99272.91;;;-0.78;100.00
59831;BME280;45711;50.108;13.712;2023-02-15T08:53:38;99271.91;;;-0.77;100.00
59831;BME280;45711;50.108;13.712;2023-02-15T08:56:06;99267.03;;;-0.88;100.00
59831;BME280;45711;50.108;13.712;2023-02-15T08:58:32;99266.75;;;-1.01;100.00
59831;BME280;45711;50.108;13.712;2023-02-15T09:00:58;99266.97;;;-0.80;100.00
59831;BME280;45711;50.108;13.712;2023-02-15T09:03:23;99268.41;;;-1.00;100.00
59831;BME280;45711;50.108;13.712;2023-02-15T09:05:56;99270.53;;;-0.95;100.00
59831;BME280;45711;50.108;13.712;2023-02-15T09:08:21;99266.03;;;-0.56;100.00
59831;BME280;45711;50.108;13.712;2023-02-15T09:10:47;99266.53;;;-0.52;100.00
59831;BME280;45711;50.108;13.712;2023-02-15T09:13:14;99257.53;;;-0.35;100.00
59831;BME280;45711;50.108;13.712;2023-02-15T09:15:39;99259.59;;;-0.53;100.00
59831;BME280;45711;50.108;13.712;2023-02-15T09:18:05;99251.47;;;-0.66;100.00
59831;BME280;45711;50.108;13.712;2023-02-15T09:20:32;99256.00;;;-0.83;100.00
59831;BME280;45711;50.108;13.712;2023-02-15T09:22:57;99266.19;;;-0.26;100.00
59831;BME280;45711;50.108;13.712;2023-02-15T09:25:23;99254.06;;;-0.58;100.00
59831;BME280;45711;50.108;13.712;2023-02-15T09:27:48;99246.66;;;-0.86;100.00
59831;BME280;45711;50.108;13.712;2023-02-15T09:30:15;99245.75;;;-0.24;100.00
59831;BME280;45711;50.108;13.712;2023-02-15T09:32:41;99252.75;;;0.07;100.00
59831;BME280;45711;50.108;13.712;2023-02-15T09:35:07;99257.63;;;0.33;100.00
59831;BME280;45711;50.108;13.712;2023-02-15T09:37:32;99252.88;;;0.28;96.28
59831;BME280;45711;50.108;13.712;2023-02-15T09:39:58;99252.19;;;0.79;97.63
59831;BME280;45711;50.108;13.712;2023-02-15T09:42:48;99252.81;;;0.81;97.05
59831;BME280;45711;50.108;13.712;2023-02-15T09:45:26;99251.41;;;0.25;94.88
59831;BME280;45711;50.108;13.712;2023-02-15T09:48:07;99246.81;;;0.42;95.36
59831;BME280;45711;50.108;13.712;2023-02-15T09:50:42;99244.13;;;0.13;96.42
59831;BME280;45711;50.108;13.712;2023-02-15T09:53:23;99238.31;;;0.17;98.42
59831;BME280;45711;50.108;13.712;2023-02-15T09:55:56;99244.31;;;0.11;97.56
59831;BME280;45711;50.108;13.712;2023-02-15T09:58:34;99243.38;;;0.42;99.34
59831;BME280;45711;50.108;13.712;2023-02-15T10:01:09;99249.00;;;0.68;97.14
59831;BME280;45711;50.108;13.712;2023-02-15T10:03:44;99235.16;;;1.11;95.43
59831;BME280;45711;50.108;13.712;2023-02-15T10:06:27;99238.13;;;0.57;93.53
59831;BME280;45711;50.108;13.712;2023-02-15T10:09:14;99237.81;;;0.96;92.55
59831;BME280;45711;50.108;13.712;2023-02-15T10:12:00;99239.13;;;0.03;93.57
59831;BME280;45711;50.108;13.712;2023-02-15T10:14:40;99235.34;;;-0.63;98.13
59831;BME280;45711;50.108;13.712;2023-02-15T10:17:25;99241.41;;;-0.86;100.00
59831;BME280;45711;50.108;13.712;2023-02-15T10:20:04;99241.91;;;-0.59;99.88
59831;BME280;45711;50.108;13.712;2023-02-15T10:22:43;99241.84;;;-0.74;100.00
59831;BME280;45711;50.108;13.712;2023-02-15T10:25:20;99236.88;;;-0.46;99.08
59831;BME280;45711;50.108;13.712;2023-02-15T10:27:49;99231.91;;;-0.41;99.21
59831;BME280;45711;50.108;13.712;2023-02-15T10:30:15;99228.59;;;-0.35;99.01
59831;BME280;45711;50.108;13.712;2023-02-15T10:32:53;99225.19;;;-0.20;99.58
59831;BME280;45711;50.108;13.712;2023-02-15T10:35:25;99225.66;;;-0.17;99.46
59831;BME280;45711;50.108;13.712;2023-02-15T10:38:10;99224.75;;;-0.09;97.25
59831;BME280;45711;50.108;13.712;2023-02-15T10:40:46;99217.31;;;-0.06;98.24
59831;BME280;45711;50.108;13.712;2023-02-15T10:43:31;99223.97;;;-0.56;99.89
59831;BME280;45711;50.108;13.712;2023-02-15T10:46:07;99212.25;;;-0.07;100.00
59831;BME280;45711;50.108;13.712;2023-02-15T10:49:11;99215.28;;;0.34;99.43
59831;BME280;45711;50.108;13.712;2023-02-15T10:51:51;99203.31;;;0.32;97.97
59831;BME280;45711;50.108;13.712;2023-02-15T10:54:27;99218.94;;;0.63;97.74
59831;BME280;45711;50.108;13.712;2023-02-15T10:57:03;99211.59;;;-0.09;96.88
59831;BME280;45711;50.108;13.712;2023-02-15T10:59:45;99210.91;;;-0.03;97.19
59831;BME280;45711;50.108;13.712;2023-02-15T11:02:20;99201.78;;;0.22;96.34
59831;BME280;45711;50.108;13.712;2023-02-15T11:04:55;99207.13;;;0.59;96.14
59831;BME280;45711;50.108;13.712;2023-02-15T11:07:24;99208.69;;;-0.14;98.69
59831;BME280;45711;50.108;13.712;2023-02-15T11:09:53;99207.22;;;0.36;98.81
59831;BME280;45711;50.108;13.712;2023-02-15T11:12:24;99200.19;;;-0.02;97.76
59831;BME280;45711;50.108;13.712;2023-02-15T11:14:55;99193.41;;;-0.34;98.84
59831;BME280;45711;50.108;13.712;2023-02-15T11:17:26;99187.91;;;-0.47;98.76
59831;BME280;45711;50.108;13.712;2023-02-15T11:20:00;99178.31;;;-0.40;99.59
59831;BME280;45711;50.108;13.712;2023-02-15T11:22:28;99181.09;;;-0.18;98.79
59831;BME280;45711;50.108;13.712;2023-02-15T11:24:57;99171.16;;;0.07;98.64
59831;BME280;45711;50.108;13.712;2023-02-15T11:27:27;99179.81;;;0.45;97.71
59831;BME280;45711;50.108;13.712;2023-02-15T11:29:57;99173.59;;;0.67;94.71
59831;BME280;45711;50.108;13.712;2023-02-15T11:32:27;99170.00;;;0.09;96.26
59831;BME280;45711;50.108;13.712;2023-02-15T11:34:58;99172.88;;;-0.01;96.46
59831;BME280;45711;50.108;13.712;2023-02-15T11:37:30;99171.91;;;-0.22;97.66
59831;BME280;45711;50.108;13.712;2023-02-15T11:39:57;99164.97;;;-0.15;97.76
59831;BME280;45711;50.108;13.712;2023-02-15T11:42:25;99170.19;;;0.37;96.85
59831;BME280;45711;50.108;13.712;2023-02-15T11:44:58;99172.00;;;0.22;95.55
59831;BME280;45711;50.108;13.712;2023-02-15T11:47:25;99165.34;;;-0.04;96.18
59831;BME280;45711;50.108;13.712;2023-02-15T11:49:50;99159.28;;;0.25;96.08
59831;BME280;45711;50.108;13.712;2023-02-15T11:52:18;99157.34;;;0.64;95.95
59831;BME280;45711;50.108;13.712;2023-02-15T11:54:45;99154.91;;;0.47;93.92
59831;BME280;45711;50.108;13.712;2023-02-15T11:57:15;99149.09;;;-0.07;95.70
59831;BME280;45711;50.108;13.712;2023-02-15T11:59:46;99147.75;;;0.12;95.54
59831;BME280;45711;50.108;13.712;2023-02-15T12:02:16;99140.09;;;0.17;96.70
59831;BME280;45711;50.108;13.712;2023-02-15T12:04:47;99137.13;;;0.20;97.01
59831;BME280;45711;50.108;13.712;2023-02-15T12:07:19;99139.91;;;0.63;98.06
59831;BME280;45711;50.108;13.712;2023-02-15T12:09:51;99129.94;;;0.43;96.03
59831;BME280;45711;50.108;13.712;2023-02-15T12:12:24;99142.75;;;0.32;95.76
59831;BME280;45711;50.108;13.712;2023-02-15T12:14:52;99139.00;;;0.56;96.41
59831;BME280;45711;50.108;13.712;2023-02-15T12:17:20;99138.34;;;0.68;94.87
59831;BME280;45711;50.108;13.712;2023-02-15T12:19:47;99141.38;;;0.50;95.24
59831;BME280;45711;50.108;13.712;2023-02-15T12:22:23;99132.88;;;0.19;97.59
59831;BME280;45711;50.108;13.712;2023-02-15T12:24:50;99127.53;;;0.99;96.60
59831;BME280;45711;50.108;13.712;2023-02-15T12:27:19;99118.50;;;0.36;95.61
59831;BME280;45711;50.108;13.712;2023-02-15T12:29:49;99123.59;;;-0.07;96.38
59831;BME280;45711;50.108;13.712;2023-02-15T12:32:19;99119.44;;;0.14;96.86
59831;BME280;45711;50.108;13.712;2023-02-15T12:34:47;99110.34;;;0.31;96.81
59831;BME280;45711;50.108;13.712;2023-02-15T12:37:17;99110.25;;;0.10;96.83
59831;BME280;45711;50.108;13.712;2023-02-15T12:39:54;99109.78;;;0.50;96.47
59831;BME280;45711;50.108;13.712;2023-02-15T12:42:20;99103.22;;;0.83;95.69
59831;BME280;45711;50.108;13.712;2023-02-15T12:44:56;99096.03;;;0.55;95.50
59831;BME280;45711;50.108;13.712;2023-02-15T12:47:22;99097.41;;;1.09;94.64
59831;BME280;45711;50.108;13.712;2023-02-15T12:50:10;99095.81;;;0.35;94.72
59831;BME280;45711;50.108;13.712;2023-02-15T12:52:42;99096.63;;;0.36;95.86
59831;BME280;45711;50.108;13.712;2023-02-15T12:55:20;99096.16;;;0.47;95.05
59831;BME280;45711;50.108;13.712;2023-02-15T12:57:46;99094.91;;;0.28;95.16
59831;BME280;45711;50.108;13.712;2023-02-15T13:00:26;99092.38;;;0.05;96.45
59831;BME280;45711;50.108;13.712;2023-02-15T13:02:55;99089.41;;;0.59;95.58